Dawson Township, Illinois
Current Conditions -  °F | °C
As of 6:56 AM on Thursday 30 Oct 2014 (Local Time) from KBMI Reporting Station
Clear Clear  
Wind Chill: 27°   Ceiling: Unl
Heat Index: 33°   Visibility: 10mi
Dew Point: 32°   Wind: 6mph
Humidity: 96%   Direction: 210°SSW
Pressure: 30.16"   Gusts: NA
Location:  40.4429°N, 88.7467°W
Report Text: KBMI 301156Z 21005KT 10SM CLR 01/00 A3016 RMK AO2 55000 T00050000 10027 20000 SLP223
Loading
Personal Weather Stations






























Interactive Weather Map
Tropical Storm Tracking
New forecast layout! Learn more

10-Day Weather Forecast

Advertisements
Track Severe Weather on mobile